sensor_id;sensor_type;location;lat;lon;timestamp;P1;durP1;ratioP1;P2;durP2;ratioP2
13455;SDS011;6800;50.940;6.940;2022-10-19T00:01:47;15.53;;;11.83;;
13455;SDS011;6800;50.940;6.940;2022-10-19T00:05:48;15.13;;;11.27;;
13455;SDS011;6800;50.940;6.940;2022-10-19T00:09:48;16.73;;;11.33;;
13455;SDS011;6800;50.940;6.940;2022-10-19T00:13:48;15.03;;;10.37;;
13455;SDS011;6800;50.940;6.940;2022-10-19T00:17:49;16.57;;;10.87;;
13455;SDS011;6800;50.940;6.940;2022-10-19T00:21:50;16.67;;;10.57;;
13455;SDS011;6800;50.940;6.940;2022-10-19T00:25:54;14.40;;;10.30;;
13455;SDS011;6800;50.940;6.940;2022-10-19T00:29:55;15.37;;;9.87;;
13455;SDS011;6800;50.940;6.940;2022-10-19T00:33:55;17.97;;;10.83;;
13455;SDS011;6800;50.940;6.940;2022-10-19T00:37:56;13.33;;;10.47;;
13455;SDS011;6800;50.940;6.940;2022-10-19T00:41:57;18.07;;;10.63;;
13455;SDS011;6800;50.940;6.940;2022-10-19T00:45:57;16.67;;;10.00;;
13455;SDS011;6800;50.940;6.940;2022-10-19T00:49:57;18.10;;;10.27;;
13455;SDS011;6800;50.940;6.940;2022-10-19T00:53:59;15.70;;;9.83;;
13455;SDS011;6800;50.940;6.940;2022-10-19T00:58:02;15.97;;;10.33;;
13455;SDS011;6800;50.940;6.940;2022-10-19T01:02:03;14.67;;;9.80;;
13455;SDS011;6800;50.940;6.940;2022-10-19T01:06:04;14.73;;;10.60;;
13455;SDS011;6800;50.940;6.940;2022-10-19T01:10:05;15.60;;;10.90;;
13455;SDS011;6800;50.940;6.940;2022-10-19T01:18:16;16.47;;;10.83;;
13455;SDS011;6800;50.940;6.940;2022-10-19T01:27:03;14.27;;;10.10;;
13455;SDS011;6800;50.940;6.940;2022-10-19T01:31:16;15.73;;;10.30;;
13455;SDS011;6800;50.940;6.940;2022-10-19T01:35:40;15.93;;;10.67;;
13455;SDS011;6800;50.940;6.940;2022-10-19T01:39:51;15.13;;;9.37;;
13455;SDS011;6800;50.940;6.940;2022-10-19T01:44:01;14.33;;;9.83;;
13455;SDS011;6800;50.940;6.940;2022-10-19T01:48:11;16.73;;;11.43;;
13455;SDS011;6800;50.940;6.940;2022-10-19T01:52:17;13.37;;;10.40;;
13455;SDS011;6800;50.940;6.940;2022-10-19T01:56:20;15.10;;;10.60;;
13455;SDS011;6800;50.940;6.940;2022-10-19T02:00:24;20.77;;;12.77;;
13455;SDS011;6800;50.940;6.940;2022-10-19T02:04:25;20.23;;;13.67;;
13455;SDS011;6800;50.940;6.940;2022-10-19T02:08:30;17.57;;;13.40;;
13455;SDS011;6800;50.940;6.940;2022-10-19T02:12:36;17.90;;;12.43;;
13455;SDS011;6800;50.940;6.940;2022-10-19T02:16:40;17.20;;;12.17;;
13455;SDS011;6800;50.940;6.940;2022-10-19T02:20:46;18.53;;;13.00;;
13455;SDS011;6800;50.940;6.940;2022-10-19T02:24:47;18.93;;;13.37;;
13455;SDS011;6800;50.940;6.940;2022-10-19T02:28:47;19.20;;;12.68;;
13455;SDS011;6800;50.940;6.940;2022-10-19T02:32:48;17.30;;;13.07;;
13455;SDS011;6800;50.940;6.940;2022-10-19T02:36:50;22.77;;;12.67;;
13455;SDS011;6800;50.940;6.940;2022-10-19T02:40:54;19.60;;;12.07;;
13455;SDS011;6800;50.940;6.940;2022-10-19T02:49:01;19.27;;;12.20;;
13455;SDS011;6800;50.940;6.940;2022-10-19T02:53:04;15.53;;;11.90;;
13455;SDS011;6800;50.940;6.940;2022-10-19T02:57:09;16.98;;;12.57;;
13455;SDS011;6800;50.940;6.940;2022-10-19T03:01:15;19.57;;;12.23;;
13455;SDS011;6800;50.940;6.940;2022-10-19T03:05:15;17.53;;;12.50;;
13455;SDS011;6800;50.940;6.940;2022-10-19T03:09:15;19.87;;;12.60;;
13455;SDS011;6800;50.940;6.940;2022-10-19T03:13:15;18.83;;;12.03;;
13455;SDS011;6800;50.940;6.940;2022-10-19T03:17:16;17.65;;;11.88;;
13455;SDS011;6800;50.940;6.940;2022-10-19T03:21:16;16.50;;;12.53;;
13455;SDS011;6800;50.940;6.940;2022-10-19T03:25:17;15.90;;;11.00;;
13455;SDS011;6800;50.940;6.940;2022-10-19T03:29:17;18.23;;;11.70;;
13455;SDS011;6800;50.940;6.940;2022-10-19T03:33:17;16.37;;;11.50;;
13455;SDS011;6800;50.940;6.940;2022-10-19T03:37:18;17.87;;;12.23;;
13455;SDS011;6800;50.940;6.940;2022-10-19T03:41:19;15.97;;;11.60;;
13455;SDS011;6800;50.940;6.940;2022-10-19T03:45:20;13.57;;;11.53;;
13455;SDS011;6800;50.940;6.940;2022-10-19T03:49:21;14.00;;;11.67;;
13455;SDS011;6800;50.940;6.940;2022-10-19T03:53:21;13.47;;;11.03;;
13455;SDS011;6800;50.940;6.940;2022-10-19T03:57:21;19.40;;;11.70;;
13455;SDS011;6800;50.940;6.940;2022-10-19T04:01:22;16.10;;;12.27;;
13455;SDS011;6800;50.940;6.940;2022-10-19T04:05:24;13.77;;;11.17;;
13455;SDS011;6800;50.940;6.940;2022-10-19T04:09:24;12.50;;;10.87;;
13455;SDS011;6800;50.940;6.940;2022-10-19T04:13:25;16.23;;;11.13;;
13455;SDS011;6800;50.940;6.940;2022-10-19T04:17:25;15.60;;;11.60;;
13455;SDS011;6800;50.940;6.940;2022-10-19T04:21:26;15.20;;;11.88;;
13455;SDS011;6800;50.940;6.940;2022-10-19T04:25:31;12.13;;;10.83;;
13455;SDS011;6800;50.940;6.940;2022-10-19T04:29:31;15.90;;;11.32;;
13455;SDS011;6800;50.940;6.940;2022-10-19T04:33:32;15.48;;;12.68;;
13455;SDS011;6800;50.940;6.940;2022-10-19T04:37:33;14.10;;;12.63;;
13455;SDS011;6800;50.940;6.940;2022-10-19T04:41:33;18.10;;;12.63;;
13455;SDS011;6800;50.940;6.940;2022-10-19T04:45:34;16.57;;;11.87;;
13455;SDS011;6800;50.940;6.940;2022-10-19T04:49:34;14.97;;;10.97;;
13455;SDS011;6800;50.940;6.940;2022-10-19T04:53:35;13.80;;;10.70;;
13455;SDS011;6800;50.940;6.940;2022-10-19T04:57:37;12.27;;;9.60;;
13455;SDS011;6800;50.940;6.940;2022-10-19T05:01:37;11.27;;;9.93;;
13455;SDS011;6800;50.940;6.940;2022-10-19T05:05:37;14.70;;;10.50;;
13455;SDS011;6800;50.940;6.940;2022-10-19T05:09:38;22.60;;;12.60;;
13455;SDS011;6800;50.940;6.940;2022-10-19T05:13:39;18.80;;;12.00;;
13455;SDS011;6800;50.940;6.940;2022-10-19T05:17:40;16.37;;;12.13;;
13455;SDS011;6800;50.940;6.940;2022-10-19T05:21:40;18.03;;;11.37;;
13455;SDS011;6800;50.940;6.940;2022-10-19T05:25:41;14.75;;;12.80;;
13455;SDS011;6800;50.940;6.940;2022-10-19T05:29:41;18.30;;;12.77;;
13455;SDS011;6800;50.940;6.940;2022-10-19T05:33:41;15.07;;;12.37;;
13455;SDS011;6800;50.940;6.940;2022-10-19T05:37:42;17.30;;;13.23;;
13455;SDS011;6800;50.940;6.940;2022-10-19T05:41:43;19.00;;;13.73;;
13455;SDS011;6800;50.940;6.940;2022-10-19T05:45:44;14.90;;;13.17;;
13455;SDS011;6800;50.940;6.940;2022-10-19T05:49:44;13.63;;;12.23;;
13455;SDS011;6800;50.940;6.940;2022-10-19T05:53:44;14.77;;;12.63;;
13455;SDS011;6800;50.940;6.940;2022-10-19T05:57:44;15.47;;;12.33;;
13455;SDS011;6800;50.940;6.940;2022-10-19T06:01:45;16.60;;;13.57;;
13455;SDS011;6800;50.940;6.940;2022-10-19T06:05:49;20.60;;;13.97;;
13455;SDS011;6800;50.940;6.940;2022-10-19T06:09:50;19.83;;;15.30;;
13455;SDS011;6800;50.940;6.940;2022-10-19T06:13:52;18.77;;;14.60;;
13455;SDS011;6800;50.940;6.940;2022-10-19T06:17:54;36.50;;;16.80;;
13455;SDS011;6800;50.940;6.940;2022-10-19T06:21:54;23.00;;;17.50;;
13455;SDS011;6800;50.940;6.940;2022-10-19T06:25:54;23.30;;;17.67;;
13455;SDS011;6800;50.940;6.940;2022-10-19T06:29:54;21.73;;;16.23;;
13455;SDS011;6800;50.940;6.940;2022-10-19T06:33:55;18.70;;;15.10;;
13455;SDS011;6800;50.940;6.940;2022-10-19T06:37:56;18.40;;;14.68;;
13455;SDS011;6800;50.940;6.940;2022-10-19T06:41:56;23.23;;;15.83;;
13455;SDS011;6800;50.940;6.940;2022-10-19T06:45:56;18.93;;;16.53;;
13455;SDS011;6800;50.940;6.940;2022-10-19T06:49:57;17.63;;;14.90;;
13455;SDS011;6800;50.940;6.940;2022-10-19T06:53:57;20.30;;;16.30;;
13455;SDS011;6800;50.940;6.940;2022-10-19T06:57:58;23.33;;;17.43;;
13455;SDS011;6800;50.940;6.940;2022-10-19T07:02:00;19.80;;;15.73;;
13455;SDS011;6800;50.940;6.940;2022-10-19T07:06:01;26.50;;;18.00;;
13455;SDS011;6800;50.940;6.940;2022-10-19T07:10:04;23.20;;;16.60;;
13455;SDS011;6800;50.940;6.940;2022-10-19T07:14:04;17.33;;;12.63;;
13455;SDS011;6800;50.940;6.940;2022-10-19T07:18:05;15.40;;;12.23;;
13455;SDS011;6800;50.940;6.940;2022-10-19T07:22:05;15.60;;;12.00;;
13455;SDS011;6800;50.940;6.940;2022-10-19T07:26:05;16.23;;;11.90;;
13455;SDS011;6800;50.940;6.940;2022-10-19T07:30:14;13.87;;;10.50;;
13455;SDS011;6800;50.940;6.940;2022-10-19T07:34:14;10.47;;;9.27;;
13455;SDS011;6800;50.940;6.940;2022-10-19T07:38:18;9.80;;;8.03;;
13455;SDS011;6800;50.940;6.940;2022-10-19T07:42:18;9.73;;;8.10;;
13455;SDS011;6800;50.940;6.940;2022-10-19T07:46:20;10.23;;;8.13;;
13455;SDS011;6800;50.940;6.940;2022-10-19T07:50:21;11.70;;;6.97;;
13455;SDS011;6800;50.940;6.940;2022-10-19T07:54:23;9.83;;;7.33;;
13455;SDS011;6800;50.940;6.940;2022-10-19T07:58:23;6.20;;;5.07;;
13455;SDS011;6800;50.940;6.940;2022-10-19T08:02:24;10.90;;;5.73;;
13455;SDS011;6800;50.940;6.940;2022-10-19T08:06:24;6.93;;;4.50;;
13455;SDS011;6800;50.940;6.940;2022-10-19T08:10:25;8.90;;;5.30;;
13455;SDS011;6800;50.940;6.940;2022-10-19T08:14:26;9.87;;;4.80;;
13455;SDS011;6800;50.940;6.940;2022-10-19T08:18:26;6.57;;;4.03;;
13455;SDS011;6800;50.940;6.940;2022-10-19T08:22:26;6.93;;;4.40;;
13455;SDS011;6800;50.940;6.940;2022-10-19T08:26:28;6.73;;;4.40;;
13455;SDS011;6800;50.940;6.940;2022-10-19T08:30:29;7.47;;;4.13;;
13455;SDS011;6800;50.940;6.940;2022-10-19T08:34:30;10.63;;;4.37;;
13455;SDS011;6800;50.940;6.940;2022-10-19T08:38:33;8.50;;;4.47;;
13455;SDS011;6800;50.940;6.940;2022-10-19T08:46:59;5.20;;;3.75;;
13455;SDS011;6800;50.940;6.940;2022-10-19T08:51:06;5.82;;;3.95;;
13455;SDS011;6800;50.940;6.940;2022-10-19T08:55:12;8.15;;;4.40;;
13455;SDS011;6800;50.940;6.940;2022-10-19T08:59:29;6.18;;;4.28;;
13455;SDS011;6800;50.940;6.940;2022-10-19T09:03:58;5.63;;;3.78;;
13455;SDS011;6800;50.940;6.940;2022-10-19T09:08:03;7.57;;;5.00;;
13455;SDS011;6800;50.940;6.940;2022-10-19T09:12:04;6.53;;;3.67;;
13455;SDS011;6800;50.940;6.940;2022-10-19T09:16:07;7.13;;;4.32;;
13455;SDS011;6800;50.940;6.940;2022-10-19T09:20:13;10.95;;;9.70;;
13455;SDS011;6800;50.940;6.940;2022-10-19T09:24:26;7.72;;;4.97;;
13455;SDS011;6800;50.940;6.940;2022-10-19T09:33:00;6.38;;;4.05;;
13455;SDS011;6800;50.940;6.940;2022-10-19T09:37:01;5.88;;;4.45;;
13455;SDS011;6800;50.940;6.940;2022-10-19T09:41:16;8.00;;;4.82;;
13455;SDS011;6800;50.940;6.940;2022-10-19T09:45:23;11.05;;;5.88;;
13455;SDS011;6800;50.940;6.940;2022-10-19T09:49:37;7.97;;;3.75;;
13455;SDS011;6800;50.940;6.940;2022-10-19T09:53:45;7.65;;;4.05;;
13455;SDS011;6800;50.940;6.940;2022-10-19T09:57:57;4.80;;;4.30;;
13455;SDS011;6800;50.940;6.940;2022-10-19T10:02:19;6.63;;;3.70;;
13455;SDS011;6800;50.940;6.940;2022-10-19T10:06:21;7.57;;;3.88;;
13455;SDS011;6800;50.940;6.940;2022-10-19T10:10:22;5.97;;;3.70;;
13455;SDS011;6800;50.940;6.940;2022-10-19T10:18:35;8.45;;;4.07;;
13455;SDS011;6800;50.940;6.940;2022-10-19T10:22:38;8.23;;;4.10;;
13455;SDS011;6800;50.940;6.940;2022-10-19T10:26:51;5.93;;;4.30;;
13455;SDS011;6800;50.940;6.940;2022-10-19T10:30:54;8.23;;;3.72;;
13455;SDS011;6800;50.940;6.940;2022-10-19T10:35:15;7.90;;;3.70;;
13455;SDS011;6800;50.940;6.940;2022-10-19T10:39:18;6.55;;;3.45;;
13455;SDS011;6800;50.940;6.940;2022-10-19T10:43:20;6.22;;;3.70;;
13455;SDS011;6800;50.940;6.940;2022-10-19T10:47:24;4.97;;;3.78;;
13455;SDS011;6800;50.940;6.940;2022-10-19T10:55:36;9.57;;;4.00;;
13455;SDS011;6800;50.940;6.940;2022-10-19T10:59:48;5.50;;;3.83;;
13455;SDS011;6800;50.940;6.940;2022-10-19T11:03:52;8.63;;;4.65;;
13455;SDS011;6800;50.940;6.940;2022-10-19T11:12:12;9.57;;;4.00;;
13455;SDS011;6800;50.940;6.940;2022-10-19T11:16:16;4.60;;;3.10;;
13455;SDS011;6800;50.940;6.940;2022-10-19T11:20:18;6.57;;;3.40;;
13455;SDS011;6800;50.940;6.940;2022-10-19T11:24:22;8.45;;;3.63;;
13455;SDS011;6800;50.940;6.940;2022-10-19T11:28:42;7.47;;;3.60;;
13455;SDS011;6800;50.940;6.940;2022-10-19T11:33:04;8.43;;;3.63;;
13455;SDS011;6800;50.940;6.940;2022-10-19T11:37:27;8.88;;;3.45;;
13455;SDS011;6800;50.940;6.940;2022-10-19T11:59:45;8.77;;;3.72;;
13455;SDS011;6800;50.940;6.940;2022-10-19T12:04:15;7.15;;;3.83;;
13455;SDS011;6800;50.940;6.940;2022-10-19T12:12:46;6.53;;;3.88;;
13455;SDS011;6800;50.940;6.940;2022-10-19T12:16:50;7.68;;;3.97;;
13455;SDS011;6800;50.940;6.940;2022-10-19T12:20:56;5.63;;;3.63;;
13455;SDS011;6800;50.940;6.940;2022-10-19T12:25:00;9.98;;;3.80;;
13455;SDS011;6800;50.940;6.940;2022-10-19T12:29:02;9.25;;;3.25;;
13455;SDS011;6800;50.940;6.940;2022-10-19T12:33:44;8.65;;;3.72;;
13455;SDS011;6800;50.940;6.940;2022-10-19T12:38:38;6.30;;;3.25;;
13455;SDS011;6800;50.940;6.940;2022-10-19T12:42:37;8.65;;;3.30;;
13455;SDS011;6800;50.940;6.940;2022-10-19T12:47:08;9.05;;;3.25;;
13455;SDS011;6800;50.940;6.940;2022-10-19T12:51:11;7.30;;;3.05;;
13455;SDS011;6800;50.940;6.940;2022-10-19T12:59:28;6.68;;;3.20;;
13455;SDS011;6800;50.940;6.940;2022-10-19T13:03:37;5.22;;;3.58;;
13455;SDS011;6800;50.940;6.940;2022-10-19T13:07:40;7.95;;;3.45;;
13455;SDS011;6800;50.940;6.940;2022-10-19T13:11:51;9.65;;;3.35;;
13455;SDS011;6800;50.940;6.940;2022-10-19T13:24:30;6.43;;;4.03;;
13455;SDS011;6800;50.940;6.940;2022-10-19T13:28:35;6.03;;;3.30;;
13455;SDS011;6800;50.940;6.940;2022-10-19T13:37:00;7.88;;;3.50;;
13455;SDS011;6800;50.940;6.940;2022-10-19T13:45:21;7.75;;;3.60;;
13455;SDS011;6800;50.940;6.940;2022-10-19T13:54:20;6.50;;;3.20;;
13455;SDS011;6800;50.940;6.940;2022-10-19T13:58:59;8.95;;;3.63;;
13455;SDS011;6800;50.940;6.940;2022-10-19T14:03:33;5.07;;;3.00;;
13455;SDS011;6800;50.940;6.940;2022-10-19T14:07:38;5.93;;;3.30;;
13455;SDS011;6800;50.940;6.940;2022-10-19T14:11:49;4.97;;;3.05;;
13455;SDS011;6800;50.940;6.940;2022-10-19T14:15:52;5.80;;;3.28;;
13455;SDS011;6800;50.940;6.940;2022-10-19T14:19:55;9.98;;;3.58;;
13455;SDS011;6800;50.940;6.940;2022-10-19T14:23:57;7.75;;;3.13;;
13455;SDS011;6800;50.940;6.940;2022-10-19T14:27:58;8.73;;;4.57;;
13455;SDS011;6800;50.940;6.940;2022-10-19T14:32:00;8.70;;;4.28;;
13455;SDS011;6800;50.940;6.940;2022-10-19T14:36:02;6.57;;;2.83;;
13455;SDS011;6800;50.940;6.940;2022-10-19T14:40:17;5.78;;;3.13;;
13455;SDS011;6800;50.940;6.940;2022-10-19T14:44:38;8.50;;;2.88;;
13455;SDS011;6800;50.940;6.940;2022-10-19T14:48:41;5.95;;;3.00;;
13455;SDS011;6800;50.940;6.940;2022-10-19T14:52:46;6.50;;;2.85;;
13455;SDS011;6800;50.940;6.940;2022-10-19T14:56:52;8.63;;;2.90;;
13455;SDS011;6800;50.940;6.940;2022-10-19T15:00:56;5.20;;;3.05;;
13455;SDS011;6800;50.940;6.940;2022-10-19T15:04:58;8.63;;;3.22;;
13455;SDS011;6800;50.940;6.940;2022-10-19T15:09:02;6.05;;;3.20;;
13455;SDS011;6800;50.940;6.940;2022-10-19T15:13:04;6.35;;;3.05;;
13455;SDS011;6800;50.940;6.940;2022-10-19T15:17:19;8.20;;;4.07;;
13455;SDS011;6800;50.940;6.940;2022-10-19T15:21:29;4.75;;;2.60;;
13455;SDS011;6800;50.940;6.940;2022-10-19T15:25:34;6.55;;;3.25;;
13455;SDS011;6800;50.940;6.940;2022-10-19T15:29:36;7.47;;;3.45;;
13455;SDS011;6800;50.940;6.940;2022-10-19T15:33:37;3.92;;;3.10;;
13455;SDS011;6800;50.940;6.940;2022-10-19T15:37:41;6.53;;;3.30;;
13455;SDS011;6800;50.940;6.940;2022-10-19T15:41:43;6.75;;;3.22;;
13455;SDS011;6800;50.940;6.940;2022-10-19T15:45:43;9.90;;;4.10;;
13455;SDS011;6800;50.940;6.940;2022-10-19T15:53:44;6.57;;;3.13;;
13455;SDS011;6800;50.940;6.940;2022-10-19T15:57:44;6.63;;;3.13;;
13455;SDS011;6800;50.940;6.940;2022-10-19T16:01:45;6.32;;;3.67;;
13455;SDS011;6800;50.940;6.940;2022-10-19T16:05:49;6.82;;;3.45;;
13455;SDS011;6800;50.940;6.940;2022-10-19T16:09:50;6.40;;;3.50;;
13455;SDS011;6800;50.940;6.940;2022-10-19T16:13:50;7.55;;;3.30;;
13455;SDS011;6800;50.940;6.940;2022-10-19T16:17:52;8.23;;;3.33;;
13455;SDS011;6800;50.940;6.940;2022-10-19T16:21:54;7.03;;;3.58;;
13455;SDS011;6800;50.940;6.940;2022-10-19T16:25:54;7.88;;;4.05;;
13455;SDS011;6800;50.940;6.940;2022-10-19T16:29:55;9.15;;;3.92;;
13455;SDS011;6800;50.940;6.940;2022-10-19T16:33:55;7.00;;;3.88;;
13455;SDS011;6800;50.940;6.940;2022-10-19T16:37:55;6.18;;;3.15;;
13455;SDS011;6800;50.940;6.940;2022-10-19T16:41:57;5.30;;;3.23;;
13455;SDS011;6800;50.940;6.940;2022-10-19T16:45:58;5.72;;;3.17;;
13455;SDS011;6800;50.940;6.940;2022-10-19T16:49:59;7.00;;;4.17;;
13455;SDS011;6800;50.940;6.940;2022-10-19T16:54:01;6.70;;;3.93;;
13455;SDS011;6800;50.940;6.940;2022-10-19T16:58:02;8.67;;;4.53;;
13455;SDS011;6800;50.940;6.940;2022-10-19T17:02:03;5.90;;;3.73;;
13455;SDS011;6800;50.940;6.940;2022-10-19T17:06:04;7.22;;;4.25;;
13455;SDS011;6800;50.940;6.940;2022-10-19T17:10:05;8.57;;;4.47;;
13455;SDS011;6800;50.940;6.940;2022-10-19T17:14:07;7.57;;;4.40;;
13455;SDS011;6800;50.940;6.940;2022-10-19T17:18:10;8.27;;;4.07;;
13455;SDS011;6800;50.940;6.940;2022-10-19T17:22:10;8.20;;;3.87;;
13455;SDS011;6800;50.940;6.940;2022-10-19T17:26:11;8.03;;;4.73;;
13455;SDS011;6800;50.940;6.940;2022-10-19T17:30:11;11.73;;;4.00;;
13455;SDS011;6800;50.940;6.940;2022-10-19T17:34:12;7.10;;;4.17;;
13455;SDS011;6800;50.940;6.940;2022-10-19T17:38:12;6.17;;;4.47;;
13455;SDS011;6800;50.940;6.940;2022-10-19T17:42:13;7.23;;;4.50;;
13455;SDS011;6800;50.940;6.940;2022-10-19T17:46:15;8.30;;;4.90;;
13455;SDS011;6800;50.940;6.940;2022-10-19T17:50:20;9.70;;;5.23;;
13455;SDS011;6800;50.940;6.940;2022-10-19T17:54:20;8.30;;;4.50;;
13455;SDS011;6800;50.940;6.940;2022-10-19T17:58:21;6.03;;;4.00;;
13455;SDS011;6800;50.940;6.940;2022-10-19T18:02:21;9.03;;;4.47;;
13455;SDS011;6800;50.940;6.940;2022-10-19T18:10:24;7.43;;;3.53;;
13455;SDS011;6800;50.940;6.940;2022-10-19T18:14:24;5.03;;;3.93;;
13455;SDS011;6800;50.940;6.940;2022-10-19T18:18:24;8.93;;;3.77;;
13455;SDS011;6800;50.940;6.940;2022-10-19T18:22:25;7.67;;;4.23;;
13455;SDS011;6800;50.940;6.940;2022-10-19T18:26:26;6.83;;;3.43;;
13455;SDS011;6800;50.940;6.940;2022-10-19T18:30:28;9.80;;;4.00;;
13455;SDS011;6800;50.940;6.940;2022-10-19T18:34:28;8.13;;;4.73;;
13455;SDS011;6800;50.940;6.940;2022-10-19T18:38:29;10.33;;;4.40;;
13455;SDS011;6800;50.940;6.940;2022-10-19T18:42:29;6.10;;;4.20;;
13455;SDS011;6800;50.940;6.940;2022-10-19T18:46:30;7.00;;;4.27;;
13455;SDS011;6800;50.940;6.940;2022-10-19T18:50:31;6.60;;;4.20;;
13455;SDS011;6800;50.940;6.940;2022-10-19T18:54:31;7.47;;;3.73;;
13455;SDS011;6800;50.940;6.940;2022-10-19T18:58:32;6.50;;;4.80;;
13455;SDS011;6800;50.940;6.940;2022-10-19T19:02:33;6.07;;;3.87;;
13455;SDS011;6800;50.940;6.940;2022-10-19T19:06:33;8.57;;;4.37;;
13455;SDS011;6800;50.940;6.940;2022-10-19T19:10:35;7.20;;;4.20;;
13455;SDS011;6800;50.940;6.940;2022-10-19T19:14:36;5.87;;;3.77;;
13455;SDS011;6800;50.940;6.940;2022-10-19T19:18:37;5.93;;;4.40;;
13455;SDS011;6800;50.940;6.940;2022-10-19T19:22:37;5.90;;;3.93;;
13455;SDS011;6800;50.940;6.940;2022-10-19T19:26:38;7.47;;;3.93;;
13455;SDS011;6800;50.940;6.940;2022-10-19T19:30:41;11.00;;;4.50;;
13455;SDS011;6800;50.940;6.940;2022-10-19T19:34:42;6.00;;;4.40;;
13455;SDS011;6800;50.940;6.940;2022-10-19T19:38:43;8.40;;;4.00;;
13455;SDS011;6800;50.940;6.940;2022-10-19T19:42:43;8.13;;;4.27;;
13455;SDS011;6800;50.940;6.940;2022-10-19T19:46:44;7.67;;;3.60;;
13455;SDS011;6800;50.940;6.940;2022-10-19T19:50:45;5.20;;;3.50;;
13455;SDS011;6800;50.940;6.940;2022-10-19T19:54:45;6.07;;;3.70;;
13455;SDS011;6800;50.940;6.940;2022-10-19T19:58:45;5.43;;;3.90;;
13455;SDS011;6800;50.940;6.940;2022-10-19T20:02:52;5.30;;;4.10;;
13455;SDS011;6800;50.940;6.940;2022-10-19T20:06:53;7.00;;;4.23;;
13455;SDS011;6800;50.940;6.940;2022-10-19T20:10:54;8.00;;;4.17;;
13455;SDS011;6800;50.940;6.940;2022-10-19T20:14:54;5.97;;;3.57;;
13455;SDS011;6800;50.940;6.940;2022-10-19T20:18:56;6.90;;;3.77;;
13455;SDS011;6800;50.940;6.940;2022-10-19T20:23:00;9.33;;;4.10;;
13455;SDS011;6800;50.940;6.940;2022-10-19T20:27:00;4.07;;;3.50;;
13455;SDS011;6800;50.940;6.940;2022-10-19T20:31:05;7.43;;;4.50;;
13455;SDS011;6800;50.940;6.940;2022-10-19T20:35:07;8.13;;;3.50;;
13455;SDS011;6800;50.940;6.940;2022-10-19T20:39:08;6.33;;;4.10;;
13455;SDS011;6800;50.940;6.940;2022-10-19T20:43:09;6.43;;;3.63;;
13455;SDS011;6800;50.940;6.940;2022-10-19T20:47:10;8.57;;;4.30;;
13455;SDS011;6800;50.940;6.940;2022-10-19T20:51:15;5.53;;;3.87;;
13455;SDS011;6800;50.940;6.940;2022-10-19T20:55:17;6.37;;;3.87;;
13455;SDS011;6800;50.940;6.940;2022-10-19T20:59:20;4.40;;;3.93;;
13455;SDS011;6800;50.940;6.940;2022-10-19T21:03:21;8.47;;;4.33;;
13455;SDS011;6800;50.940;6.940;2022-10-19T21:07:22;5.73;;;4.27;;
13455;SDS011;6800;50.940;6.940;2022-10-19T21:11:24;6.53;;;5.50;;
13455;SDS011;6800;50.940;6.940;2022-10-19T21:15:25;5.80;;;4.90;;
13455;SDS011;6800;50.940;6.940;2022-10-19T21:19:26;6.67;;;4.57;;
13455;SDS011;6800;50.940;6.940;2022-10-19T21:23:28;6.47;;;4.57;;
13455;SDS011;6800;50.940;6.940;2022-10-19T21:27:28;5.97;;;5.00;;
13455;SDS011;6800;50.940;6.940;2022-10-19T21:31:28;5.20;;;4.37;;
13455;SDS011;6800;50.940;6.940;2022-10-19T21:35:29;7.83;;;5.10;;
13455;SDS011;6800;50.940;6.940;2022-10-19T21:39:29;6.77;;;4.50;;
13455;SDS011;6800;50.940;6.940;2022-10-19T21:43:30;9.27;;;5.50;;
13455;SDS011;6800;50.940;6.940;2022-10-19T21:47:31;8.90;;;5.33;;
13455;SDS011;6800;50.940;6.940;2022-10-19T21:51:32;7.07;;;4.80;;
13455;SDS011;6800;50.940;6.940;2022-10-19T21:55:35;5.93;;;5.43;;
13455;SDS011;6800;50.940;6.940;2022-10-19T21:59:35;9.37;;;5.50;;
13455;SDS011;6800;50.940;6.940;2022-10-19T22:03:36;8.57;;;5.70;;
13455;SDS011;6800;50.940;6.940;2022-10-19T22:07:36;8.13;;;7.20;;
13455;SDS011;6800;50.940;6.940;2022-10-19T22:11:36;10.15;;;7.10;;
13455;SDS011;6800;50.940;6.940;2022-10-19T22:15:37;8.63;;;6.53;;
13455;SDS011;6800;50.940;6.940;2022-10-19T22:19:38;9.50;;;6.27;;
13455;SDS011;6800;50.940;6.940;2022-10-19T22:23:38;9.50;;;5.80;;
13455;SDS011;6800;50.940;6.940;2022-10-19T22:27:39;9.87;;;6.37;;
13455;SDS011;6800;50.940;6.940;2022-10-19T22:31:40;9.03;;;6.17;;
13455;SDS011;6800;50.940;6.940;2022-10-19T22:35:41;10.37;;;6.37;;
13455;SDS011;6800;50.940;6.940;2022-10-19T22:39:41;8.70;;;6.27;;
13455;SDS011;6800;50.940;6.940;2022-10-19T22:43:41;9.67;;;6.47;;
13455;SDS011;6800;50.940;6.940;2022-10-19T22:47:41;9.13;;;6.47;;
13455;SDS011;6800;50.940;6.940;2022-10-19T22:51:42;10.13;;;7.30;;
13455;SDS011;6800;50.940;6.940;2022-10-19T22:55:42;9.90;;;6.27;;
13455;SDS011;6800;50.940;6.940;2022-10-19T22:59:42;7.43;;;6.57;;
13455;SDS011;6800;50.940;6.940;2022-10-19T23:03:43;10.67;;;9.03;;
13455;SDS011;6800;50.940;6.940;2022-10-19T23:07:43;8.73;;;7.70;;
13455;SDS011;6800;50.940;6.940;2022-10-19T23:11:43;10.77;;;7.30;;
13455;SDS011;6800;50.940;6.940;2022-10-19T23:15:43;11.33;;;7.40;;
13455;SDS011;6800;50.940;6.940;2022-10-19T23:19:44;10.37;;;7.57;;
13455;SDS011;6800;50.940;6.940;2022-10-19T23:23:45;8.37;;;7.43;;
13455;SDS011;6800;50.940;6.940;2022-10-19T23:27:46;11.18;;;8.00;;
13455;SDS011;6800;50.940;6.940;2022-10-19T23:31:47;13.50;;;11.10;;
13455;SDS011;6800;50.940;6.940;2022-10-19T23:35:48;9.50;;;8.50;;
13455;SDS011;6800;50.940;6.940;2022-10-19T23:39:48;12.20;;;9.80;;
13455;SDS011;6800;50.940;6.940;2022-10-19T23:43:48;13.55;;;11.38;;
13455;SDS011;6800;50.940;6.940;2022-10-19T23:47:48;10.90;;;8.43;;
13455;SDS011;6800;50.940;6.940;2022-10-19T23:51:49;12.17;;;9.77;;
13455;SDS011;6800;50.940;6.940;2022-10-19T23:55:49;9.17;;;8.20;;
13455;SDS011;6800;50.940;6.940;2022-10-19T23:59:49;15.93;;;12.73;;
